sensor_id;sensor_type;location;lat;lon;timestamp;P1;durP1;ratioP1;P2;durP2;ratioP2
57463;SDS011;43309;44.418;26.122;2023-01-23T00:01:11;8.50;;;4.40;;
57463;SDS011;43309;44.418;26.122;2023-01-23T00:03:41;12.30;;;4.60;;
57463;SDS011;43309;44.418;26.122;2023-01-23T00:06:13;13.70;;;4.50;;
57463;SDS011;43309;44.418;26.122;2023-01-23T00:08:42;9.40;;;4.20;;
57463;SDS011;43309;44.418;26.122;2023-01-23T00:11:12;8.90;;;4.50;;
57463;SDS011;43309;44.418;26.122;2023-01-23T00:13:40;10.70;;;4.00;;
57463;SDS011;43309;44.418;26.122;2023-01-23T00:16:10;8.30;;;4.20;;
57463;SDS011;43309;44.418;26.122;2023-01-23T00:18:39;11.50;;;4.40;;
57463;SDS011;43309;44.418;26.122;2023-01-23T00:21:09;9.30;;;4.20;;
57463;SDS011;43309;44.418;26.122;2023-01-23T00:26:09;6.40;;;3.80;;
57463;SDS011;43309;44.418;26.122;2023-01-23T00:28:38;10.40;;;4.50;;
57463;SDS011;43309;44.418;26.122;2023-01-23T00:31:07;8.10;;;4.00;;
57463;SDS011;43309;44.418;26.122;2023-01-23T00:33:39;8.80;;;4.20;;
57463;SDS011;43309;44.418;26.122;2023-01-23T00:36:07;10.00;;;4.00;;
57463;SDS011;43309;44.418;26.122;2023-01-23T00:38:34;10.10;;;4.00;;
57463;SDS011;43309;44.418;26.122;2023-01-23T00:41:02;8.00;;;4.20;;
57463;SDS011;43309;44.418;26.122;2023-01-23T00:43:30;8.40;;;3.70;;
57463;SDS011;43309;44.418;26.122;2023-01-23T00:45:57;7.90;;;4.10;;
57463;SDS011;43309;44.418;26.122;2023-01-23T00:48:24;9.90;;;3.90;;
57463;SDS011;43309;44.418;26.122;2023-01-23T00:50:52;12.90;;;3.90;;
57463;SDS011;43309;44.418;26.122;2023-01-23T00:53:20;6.70;;;3.60;;
57463;SDS011;43309;44.418;26.122;2023-01-23T00:55:47;6.30;;;3.60;;
57463;SDS011;43309;44.418;26.122;2023-01-23T00:58:14;12.90;;;4.00;;
57463;SDS011;43309;44.418;26.122;2023-01-23T01:00:41;9.10;;;3.90;;
57463;SDS011;43309;44.418;26.122;2023-01-23T01:03:09;8.10;;;4.00;;
57463;SDS011;43309;44.418;26.122;2023-01-23T01:05:36;7.00;;;3.60;;
57463;SDS011;43309;44.418;26.122;2023-01-23T01:08:03;6.50;;;3.80;;
57463;SDS011;43309;44.418;26.122;2023-01-23T01:10:31;9.10;;;3.60;;
57463;SDS011;43309;44.418;26.122;2023-01-23T01:13:00;6.30;;;3.50;;
57463;SDS011;43309;44.418;26.122;2023-01-23T01:15:29;9.10;;;3.50;;
57463;SDS011;43309;44.418;26.122;2023-01-23T01:17:57;9.10;;;3.60;;
57463;SDS011;43309;44.418;26.122;2023-01-23T01:20:25;7.30;;;3.40;;
57463;SDS011;43309;44.418;26.122;2023-01-23T01:22:54;7.10;;;3.40;;
57463;SDS011;43309;44.418;26.122;2023-01-23T01:25:23;6.50;;;3.50;;
57463;SDS011;43309;44.418;26.122;2023-01-23T01:27:51;5.00;;;3.30;;
57463;SDS011;43309;44.418;26.122;2023-01-23T01:30:18;7.70;;;3.40;;
57463;SDS011;43309;44.418;26.122;2023-01-23T01:32:46;6.10;;;3.40;;
57463;SDS011;43309;44.418;26.122;2023-01-23T01:35:13;6.40;;;3.20;;
57463;SDS011;43309;44.418;26.122;2023-01-23T01:37:40;6.30;;;3.20;;
57463;SDS011;43309;44.418;26.122;2023-01-23T01:40:11;7.70;;;3.50;;
57463;SDS011;43309;44.418;26.122;2023-01-23T01:42:41;6.10;;;3.50;;
57463;SDS011;43309;44.418;26.122;2023-01-23T01:48:20;5.60;;;3.30;;
57463;SDS011;43309;44.418;26.122;2023-01-23T01:50:50;8.70;;;3.30;;
57463;SDS011;43309;44.418;26.122;2023-01-23T01:53:19;6.70;;;3.10;;
57463;SDS011;43309;44.418;26.122;2023-01-23T01:55:47;7.20;;;3.20;;
57463;SDS011;43309;44.418;26.122;2023-01-23T01:58:15;5.20;;;3.00;;
57463;SDS011;43309;44.418;26.122;2023-01-23T02:00:43;7.80;;;3.20;;
57463;SDS011;43309;44.418;26.122;2023-01-23T02:03:10;6.10;;;3.00;;
57463;SDS011;43309;44.418;26.122;2023-01-23T02:05:40;6.40;;;3.50;;
57463;SDS011;43309;44.418;26.122;2023-01-23T02:10:41;6.50;;;3.00;;
57463;SDS011;43309;44.418;26.122;2023-01-23T02:13:43;7.90;;;3.20;;
57463;SDS011;43309;44.418;26.122;2023-01-23T02:16:06;5.00;;;2.70;;
57463;SDS011;43309;44.418;26.122;2023-01-23T02:18:36;5.10;;;3.20;;
57463;SDS011;43309;44.418;26.122;2023-01-23T02:21:08;6.10;;;3.10;;
57463;SDS011;43309;44.418;26.122;2023-01-23T02:26:31;5.60;;;3.10;;
57463;SDS011;43309;44.418;26.122;2023-01-23T02:29:03;5.20;;;3.00;;
57463;SDS011;43309;44.418;26.122;2023-01-23T02:31:31;3.90;;;2.90;;
57463;SDS011;43309;44.418;26.122;2023-01-23T02:33:58;9.40;;;2.70;;
57463;SDS011;43309;44.418;26.122;2023-01-23T02:36:27;3.90;;;2.80;;
57463;SDS011;43309;44.418;26.122;2023-01-23T02:39:10;4.40;;;2.90;;
57463;SDS011;43309;44.418;26.122;2023-01-23T02:41:47;29.40;;;3.40;;
57463;SDS011;43309;44.418;26.122;2023-01-23T02:46:52;3.80;;;2.70;;
57463;SDS011;43309;44.418;26.122;2023-01-23T02:49:23;4.40;;;2.70;;
57463;SDS011;43309;44.418;26.122;2023-01-23T02:51:51;10.90;;;2.60;;
57463;SDS011;43309;44.418;26.122;2023-01-23T02:54:20;5.10;;;2.60;;
57463;SDS011;43309;44.418;26.122;2023-01-23T02:56:48;6.20;;;2.60;;
57463;SDS011;43309;44.418;26.122;2023-01-23T02:59:16;7.10;;;3.10;;
57463;SDS011;43309;44.418;26.122;2023-01-23T03:02:01;4.30;;;2.70;;
57463;SDS011;43309;44.418;26.122;2023-01-23T03:04:30;3.80;;;2.70;;
57463;SDS011;43309;44.418;26.122;2023-01-23T03:06:57;6.10;;;2.60;;
57463;SDS011;43309;44.418;26.122;2023-01-23T03:09:25;5.20;;;2.60;;
57463;SDS011;43309;44.418;26.122;2023-01-23T03:11:52;3.30;;;2.50;;
57463;SDS011;43309;44.418;26.122;2023-01-23T03:14:20;4.20;;;2.70;;
57463;SDS011;43309;44.418;26.122;2023-01-23T03:16:49;5.50;;;2.70;;
57463;SDS011;43309;44.418;26.122;2023-01-23T03:19:19;2.60;;;2.20;;
57463;SDS011;43309;44.418;26.122;2023-01-23T03:21:49;3.80;;;2.40;;
57463;SDS011;43309;44.418;26.122;2023-01-23T03:24:17;3.20;;;2.20;;
57463;SDS011;43309;44.418;26.122;2023-01-23T03:26:45;5.40;;;2.30;;
57463;SDS011;43309;44.418;26.122;2023-01-23T03:29:17;4.90;;;2.50;;
57463;SDS011;43309;44.418;26.122;2023-01-23T03:32:08;7.50;;;2.80;;
57463;SDS011;43309;44.418;26.122;2023-01-23T03:34:37;5.10;;;2.60;;
57463;SDS011;43309;44.418;26.122;2023-01-23T03:37:04;6.60;;;2.70;;
57463;SDS011;43309;44.418;26.122;2023-01-23T03:39:33;5.20;;;2.50;;
57463;SDS011;43309;44.418;26.122;2023-01-23T03:42:20;2.80;;;2.10;;
57463;SDS011;43309;44.418;26.122;2023-01-23T03:44:47;6.10;;;2.60;;
57463;SDS011;43309;44.418;26.122;2023-01-23T03:47:15;4.10;;;2.50;;
57463;SDS011;43309;44.418;26.122;2023-01-23T03:49:42;5.40;;;2.60;;
57463;SDS011;43309;44.418;26.122;2023-01-23T03:52:09;3.60;;;1.90;;
57463;SDS011;43309;44.418;26.122;2023-01-23T03:54:36;3.90;;;2.10;;
57463;SDS011;43309;44.418;26.122;2023-01-23T03:57:04;5.00;;;2.20;;
57463;SDS011;43309;44.418;26.122;2023-01-23T03:59:31;3.80;;;2.30;;
57463;SDS011;43309;44.418;26.122;2023-01-23T04:01:58;3.30;;;2.10;;
57463;SDS011;43309;44.418;26.122;2023-01-23T04:04:26;8.10;;;2.50;;
57463;SDS011;43309;44.418;26.122;2023-01-23T04:06:54;4.50;;;2.10;;
57463;SDS011;43309;44.418;26.122;2023-01-23T04:09:21;5.10;;;2.10;;
57463;SDS011;43309;44.418;26.122;2023-01-23T04:11:53;3.50;;;2.00;;
57463;SDS011;43309;44.418;26.122;2023-01-23T04:14:21;4.20;;;1.90;;
57463;SDS011;43309;44.418;26.122;2023-01-23T04:16:50;2.90;;;2.00;;
57463;SDS011;43309;44.418;26.122;2023-01-23T04:19:17;2.90;;;2.00;;
57463;SDS011;43309;44.418;26.122;2023-01-23T04:21:46;5.60;;;2.00;;
57463;SDS011;43309;44.418;26.122;2023-01-23T04:24:15;5.00;;;2.00;;
57463;SDS011;43309;44.418;26.122;2023-01-23T04:26:43;4.10;;;2.30;;
57463;SDS011;43309;44.418;26.122;2023-01-23T04:29:11;3.60;;;2.20;;
57463;SDS011;43309;44.418;26.122;2023-01-23T04:31:38;5.40;;;2.40;;
57463;SDS011;43309;44.418;26.122;2023-01-23T04:34:06;5.00;;;2.20;;
57463;SDS011;43309;44.418;26.122;2023-01-23T04:36:33;3.80;;;1.80;;
57463;SDS011;43309;44.418;26.122;2023-01-23T04:39:01;3.40;;;1.80;;
57463;SDS011;43309;44.418;26.122;2023-01-23T04:41:29;4.50;;;2.10;;
57463;SDS011;43309;44.418;26.122;2023-01-23T04:43:57;3.40;;;1.70;;
57463;SDS011;43309;44.418;26.122;2023-01-23T04:46:46;5.40;;;2.10;;
57463;SDS011;43309;44.418;26.122;2023-01-23T04:49:15;3.90;;;2.10;;
57463;SDS011;43309;44.418;26.122;2023-01-23T04:51:45;4.00;;;2.20;;
57463;SDS011;43309;44.418;26.122;2023-01-23T04:54:14;6.00;;;2.10;;
57463;SDS011;43309;44.418;26.122;2023-01-23T04:56:42;2.30;;;1.90;;
57463;SDS011;43309;44.418;26.122;2023-01-23T04:59:10;3.10;;;2.00;;
57463;SDS011;43309;44.418;26.122;2023-01-23T05:01:37;3.90;;;1.90;;
57463;SDS011;43309;44.418;26.122;2023-01-23T05:04:04;3.00;;;1.60;;
57463;SDS011;43309;44.418;26.122;2023-01-23T05:06:31;2.60;;;1.70;;
57463;SDS011;43309;44.418;26.122;2023-01-23T05:08:59;4.90;;;2.10;;
57463;SDS011;43309;44.418;26.122;2023-01-23T05:11:26;3.40;;;2.00;;
57463;SDS011;43309;44.418;26.122;2023-01-23T05:13:54;4.70;;;2.00;;
57463;SDS011;43309;44.418;26.122;2023-01-23T05:16:21;3.80;;;2.00;;
57463;SDS011;43309;44.418;26.122;2023-01-23T05:18:48;3.00;;;1.80;;
57463;SDS011;43309;44.418;26.122;2023-01-23T05:21:15;2.70;;;1.80;;
57463;SDS011;43309;44.418;26.122;2023-01-23T05:23:42;3.60;;;1.80;;
57463;SDS011;43309;44.418;26.122;2023-01-23T05:26:09;3.60;;;1.80;;
57463;SDS011;43309;44.418;26.122;2023-01-23T05:28:37;3.20;;;1.40;;
57463;SDS011;43309;44.418;26.122;2023-01-23T05:31:04;3.80;;;2.00;;
57463;SDS011;43309;44.418;26.122;2023-01-23T05:33:31;3.20;;;1.80;;
57463;SDS011;43309;44.418;26.122;2023-01-23T05:35:58;2.90;;;1.70;;
57463;SDS011;43309;44.418;26.122;2023-01-23T05:38:26;3.50;;;1.90;;
57463;SDS011;43309;44.418;26.122;2023-01-23T05:40:54;2.60;;;1.60;;
57463;SDS011;43309;44.418;26.122;2023-01-23T05:43:21;2.30;;;1.60;;
57463;SDS011;43309;44.418;26.122;2023-01-23T05:45:48;4.00;;;1.90;;
57463;SDS011;43309;44.418;26.122;2023-01-23T05:48:16;4.10;;;1.90;;
57463;SDS011;43309;44.418;26.122;2023-01-23T05:50:43;4.50;;;1.60;;
57463;SDS011;43309;44.418;26.122;2023-01-23T05:53:10;3.20;;;1.60;;
57463;SDS011;43309;44.418;26.122;2023-01-23T05:55:37;3.20;;;1.80;;
57463;SDS011;43309;44.418;26.122;2023-01-23T05:58:05;3.40;;;1.70;;
57463;SDS011;43309;44.418;26.122;2023-01-23T06:00:32;2.90;;;1.60;;
57463;SDS011;43309;44.418;26.122;2023-01-23T06:03:00;2.40;;;1.80;;
57463;SDS011;43309;44.418;26.122;2023-01-23T06:05:27;4.10;;;1.60;;
57463;SDS011;43309;44.418;26.122;2023-01-23T06:07:55;5.10;;;1.40;;
57463;SDS011;43309;44.418;26.122;2023-01-23T06:10:22;1.60;;;1.50;;
57463;SDS011;43309;44.418;26.122;2023-01-23T06:12:49;5.10;;;1.70;;
57463;SDS011;43309;44.418;26.122;2023-01-23T06:15:16;4.40;;;1.60;;
57463;SDS011;43309;44.418;26.122;2023-01-23T06:17:44;3.80;;;1.70;;
57463;SDS011;43309;44.418;26.122;2023-01-23T06:20:11;2.90;;;1.60;;
57463;SDS011;43309;44.418;26.122;2023-01-23T06:22:38;2.80;;;1.50;;
57463;SDS011;43309;44.418;26.122;2023-01-23T06:25:06;4.60;;;1.30;;
57463;SDS011;43309;44.418;26.122;2023-01-23T06:27:34;3.80;;;1.60;;
57463;SDS011;43309;44.418;26.122;2023-01-23T06:30:01;4.30;;;1.60;;
57463;SDS011;43309;44.418;26.122;2023-01-23T06:32:28;3.10;;;1.40;;
57463;SDS011;43309;44.418;26.122;2023-01-23T06:34:56;8.80;;;1.80;;
57463;SDS011;43309;44.418;26.122;2023-01-23T06:37:23;6.70;;;1.90;;
57463;SDS011;43309;44.418;26.122;2023-01-23T06:39:50;5.00;;;2.30;;
57463;SDS011;43309;44.418;26.122;2023-01-23T06:42:17;5.50;;;2.30;;
57463;SDS011;43309;44.418;26.122;2023-01-23T06:44:44;6.90;;;2.50;;
57463;SDS011;43309;44.418;26.122;2023-01-23T06:47:12;11.20;;;2.50;;
57463;SDS011;43309;44.418;26.122;2023-01-23T06:49:39;8.60;;;2.30;;
57463;SDS011;43309;44.418;26.122;2023-01-23T06:52:06;17.00;;;2.80;;
57463;SDS011;43309;44.418;26.122;2023-01-23T06:54:34;11.40;;;3.20;;
57463;SDS011;43309;44.418;26.122;2023-01-23T06:57:02;8.70;;;2.10;;
57463;SDS011;43309;44.418;26.122;2023-01-23T06:59:30;8.20;;;2.10;;
57463;SDS011;43309;44.418;26.122;2023-01-23T07:01:58;4.60;;;2.00;;
57463;SDS011;43309;44.418;26.122;2023-01-23T07:04:25;12.00;;;2.10;;
57463;SDS011;43309;44.418;26.122;2023-01-23T07:06:53;5.40;;;2.00;;
57463;SDS011;43309;44.418;26.122;2023-01-23T07:09:20;8.90;;;2.10;;
57463;SDS011;43309;44.418;26.122;2023-01-23T07:11:47;7.20;;;2.00;;
57463;SDS011;43309;44.418;26.122;2023-01-23T07:14:14;8.60;;;2.00;;
57463;SDS011;43309;44.418;26.122;2023-01-23T07:16:41;5.80;;;2.50;;
57463;SDS011;43309;44.418;26.122;2023-01-23T07:19:09;4.90;;;1.90;;
57463;SDS011;43309;44.418;26.122;2023-01-23T07:21:36;7.60;;;1.90;;
57463;SDS011;43309;44.418;26.122;2023-01-23T07:24:03;9.60;;;2.20;;
57463;SDS011;43309;44.418;26.122;2023-01-23T07:26:31;7.20;;;2.30;;
57463;SDS011;43309;44.418;26.122;2023-01-23T07:28:58;6.80;;;1.80;;
57463;SDS011;43309;44.418;26.122;2023-01-23T07:31:26;3.90;;;2.10;;
57463;SDS011;43309;44.418;26.122;2023-01-23T07:33:53;4.20;;;1.90;;
57463;SDS011;43309;44.418;26.122;2023-01-23T07:36:20;5.40;;;2.30;;
57463;SDS011;43309;44.418;26.122;2023-01-23T07:38:47;8.10;;;2.20;;
57463;SDS011;43309;44.418;26.122;2023-01-23T07:41:14;8.30;;;2.40;;
57463;SDS011;43309;44.418;26.122;2023-01-23T07:43:41;6.30;;;1.60;;
57463;SDS011;43309;44.418;26.122;2023-01-23T07:46:09;7.00;;;2.10;;
57463;SDS011;43309;44.418;26.122;2023-01-23T07:48:36;3.50;;;1.90;;
57463;SDS011;43309;44.418;26.122;2023-01-23T07:51:04;8.50;;;2.10;;
57463;SDS011;43309;44.418;26.122;2023-01-23T07:53:32;10.50;;;2.20;;
57463;SDS011;43309;44.418;26.122;2023-01-23T07:56:02;8.70;;;2.40;;
57463;SDS011;43309;44.418;26.122;2023-01-23T07:58:30;6.30;;;2.20;;
57463;SDS011;43309;44.418;26.122;2023-01-23T08:00:58;10.50;;;2.00;;
57463;SDS011;43309;44.418;26.122;2023-01-23T08:03:25;6.30;;;1.90;;
57463;SDS011;43309;44.418;26.122;2023-01-23T08:05:54;5.20;;;2.40;;
57463;SDS011;43309;44.418;26.122;2023-01-23T08:08:22;14.60;;;2.50;;
57463;SDS011;43309;44.418;26.122;2023-01-23T08:10:49;7.80;;;2.20;;
57463;SDS011;43309;44.418;26.122;2023-01-23T08:13:16;7.40;;;2.60;;
57463;SDS011;43309;44.418;26.122;2023-01-23T08:15:44;4.40;;;2.20;;
57463;SDS011;43309;44.418;26.122;2023-01-23T08:18:12;8.40;;;2.00;;
57463;SDS011;43309;44.418;26.122;2023-01-23T08:20:39;9.00;;;2.10;;
57463;SDS011;43309;44.418;26.122;2023-01-23T08:23:06;4.90;;;2.70;;
57463;SDS011;43309;44.418;26.122;2023-01-23T08:25:33;31.50;;;22.80;;
57463;SDS011;43309;44.418;26.122;2023-01-23T08:28:01;53.50;;;40.80;;
57463;SDS011;43309;44.418;26.122;2023-01-23T08:30:28;48.10;;;41.90;;
57463;SDS011;43309;44.418;26.122;2023-01-23T08:32:55;51.70;;;41.80;;
57463;SDS011;43309;44.418;26.122;2023-01-23T08:35:23;46.70;;;39.80;;
57463;SDS011;43309;44.418;26.122;2023-01-23T08:37:50;45.10;;;38.10;;
57463;SDS011;43309;44.418;26.122;2023-01-23T08:40:18;44.90;;;36.30;;
57463;SDS011;43309;44.418;26.122;2023-01-23T08:42:45;42.00;;;35.50;;
57463;SDS011;43309;44.418;26.122;2023-01-23T08:45:12;42.30;;;35.20;;
57463;SDS011;43309;44.418;26.122;2023-01-23T08:47:40;39.50;;;35.20;;
57463;SDS011;43309;44.418;26.122;2023-01-23T08:50:07;41.00;;;34.50;;
57463;SDS011;43309;44.418;26.122;2023-01-23T08:52:35;40.90;;;33.10;;
57463;SDS011;43309;44.418;26.122;2023-01-23T08:55:02;40.30;;;32.70;;
57463;SDS011;43309;44.418;26.122;2023-01-23T08:57:30;38.50;;;31.50;;
57463;SDS011;43309;44.418;26.122;2023-01-23T08:59:57;37.70;;;30.90;;
57463;SDS011;43309;44.418;26.122;2023-01-23T09:02:24;36.70;;;30.50;;
57463;SDS011;43309;44.418;26.122;2023-01-23T09:04:52;38.20;;;30.70;;
57463;SDS011;43309;44.418;26.122;2023-01-23T09:07:19;38.30;;;29.60;;
57463;SDS011;43309;44.418;26.122;2023-01-23T09:09:46;33.90;;;29.40;;
57463;SDS011;43309;44.418;26.122;2023-01-23T09:12:14;34.60;;;27.80;;
57463;SDS011;43309;44.418;26.122;2023-01-23T09:14:41;33.30;;;27.90;;
57463;SDS011;43309;44.418;26.122;2023-01-23T09:17:08;34.50;;;28.20;;
57463;SDS011;43309;44.418;26.122;2023-01-23T09:19:35;37.60;;;27.30;;
57463;SDS011;43309;44.418;26.122;2023-01-23T09:22:03;30.80;;;25.80;;
57463;SDS011;43309;44.418;26.122;2023-01-23T09:24:30;30.20;;;25.50;;
57463;SDS011;43309;44.418;26.122;2023-01-23T09:26:57;28.60;;;25.40;;
57463;SDS011;43309;44.418;26.122;2023-01-23T09:29:24;29.40;;;24.50;;
57463;SDS011;43309;44.418;26.122;2023-01-23T09:31:51;30.70;;;24.70;;
57463;SDS011;43309;44.418;26.122;2023-01-23T09:34:19;28.80;;;24.00;;
57463;SDS011;43309;44.418;26.122;2023-01-23T09:36:46;28.70;;;24.00;;
57463;SDS011;43309;44.418;26.122;2023-01-23T09:39:13;29.30;;;22.40;;
57463;SDS011;43309;44.418;26.122;2023-01-23T09:41:42;28.40;;;22.30;;
57463;SDS011;43309;44.418;26.122;2023-01-23T09:44:11;25.20;;;20.70;;
57463;SDS011;43309;44.418;26.122;2023-01-23T09:47:01;26.50;;;21.50;;
57463;SDS011;43309;44.418;26.122;2023-01-23T09:54:51;22.70;;;18.90;;
57463;SDS011;43309;44.418;26.122;2023-01-23T09:57:23;21.40;;;18.00;;
57463;SDS011;43309;44.418;26.122;2023-01-23T09:59:57;22.30;;;17.00;;
57463;SDS011;43309;44.418;26.122;2023-01-23T10:02:27;21.60;;;17.10;;
57463;SDS011;43309;44.418;26.122;2023-01-23T10:04:55;18.20;;;16.00;;
57463;SDS011;43309;44.418;26.122;2023-01-23T10:12:46;17.40;;;15.00;;
57463;SDS011;43309;44.418;26.122;2023-01-23T10:15:21;16.60;;;14.20;;
57463;SDS011;43309;44.418;26.122;2023-01-23T10:26:18;16.90;;;12.80;;
57463;SDS011;43309;44.418;26.122;2023-01-23T10:28:48;18.90;;;12.60;;
57463;SDS011;43309;44.418;26.122;2023-01-23T10:31:27;16.80;;;12.60;;
57463;SDS011;43309;44.418;26.122;2023-01-23T10:34:34;15.00;;;12.80;;
57463;SDS011;43309;44.418;26.122;2023-01-23T10:37:20;19.10;;;12.30;;
57463;SDS011;43309;44.418;26.122;2023-01-23T10:43:15;12.30;;;9.90;;
57463;SDS011;43309;44.418;26.122;2023-01-23T10:45:45;14.00;;;10.30;;
57463;SDS011;43309;44.418;26.122;2023-01-23T10:50:58;10.40;;;9.10;;
57463;SDS011;43309;44.418;26.122;2023-01-23T10:53:26;11.50;;;9.40;;
57463;SDS011;43309;44.418;26.122;2023-01-23T10:55:57;12.50;;;9.60;;
57463;SDS011;43309;44.418;26.122;2023-01-23T10:58:38;15.10;;;9.20;;
57463;SDS011;43309;44.418;26.122;2023-01-23T11:06:16;9.80;;;8.00;;
57463;SDS011;43309;44.418;26.122;2023-01-23T11:08:55;9.80;;;8.40;;
57463;SDS011;43309;44.418;26.122;2023-01-23T11:11:25;13.30;;;8.90;;
57463;SDS011;43309;44.418;26.122;2023-01-23T11:14:04;11.30;;;8.40;;
57463;SDS011;43309;44.418;26.122;2023-01-23T11:16:34;10.30;;;8.50;;
57463;SDS011;43309;44.418;26.122;2023-01-23T11:24:27;9.00;;;7.30;;
57463;SDS011;43309;44.418;26.122;2023-01-23T11:27:04;10.20;;;7.40;;
57463;SDS011;43309;44.418;26.122;2023-01-23T11:30:12;10.10;;;7.40;;
57463;SDS011;43309;44.418;26.122;2023-01-23T11:32:43;13.00;;;7.30;;
57463;SDS011;43309;44.418;26.122;2023-01-23T11:35:49;8.00;;;7.00;;
57463;SDS011;43309;44.418;26.122;2023-01-23T11:38:42;8.90;;;6.70;;
57463;SDS011;43309;44.418;26.122;2023-01-23T11:41:15;7.50;;;6.00;;
57463;SDS011;43309;44.418;26.122;2023-01-23T11:43:42;9.00;;;6.60;;
57463;SDS011;43309;44.418;26.122;2023-01-23T11:58:16;8.40;;;6.40;;
57463;SDS011;43309;44.418;26.122;2023-01-23T12:08:53;10.60;;;5.50;;
57463;SDS011;43309;44.418;26.122;2023-01-23T12:11:34;10.30;;;5.50;;
57463;SDS011;43309;44.418;26.122;2023-01-23T12:17:04;6.40;;;5.00;;
57463;SDS011;43309;44.418;26.122;2023-01-23T12:27:39;5.60;;;4.40;;
57463;SDS011;43309;44.418;26.122;2023-01-23T12:32:59;9.00;;;5.60;;
57463;SDS011;43309;44.418;26.122;2023-01-23T12:35:32;6.00;;;4.80;;
57463;SDS011;43309;44.418;26.122;2023-01-23T12:43:33;5.30;;;3.70;;
57463;SDS011;43309;44.418;26.122;2023-01-23T12:46:24;6.20;;;4.40;;
57463;SDS011;43309;44.418;26.122;2023-01-23T12:51:38;8.30;;;5.00;;
57463;SDS011;43309;44.418;26.122;2023-01-23T12:54:10;12.50;;;7.00;;
57463;SDS011;43309;44.418;26.122;2023-01-23T12:56:46;20.20;;;14.30;;
57463;SDS011;43309;44.418;26.122;2023-01-23T13:07:24;18.80;;;11.70;;
57463;SDS011;43309;44.418;26.122;2023-01-23T13:13:12;13.70;;;10.30;;
57463;SDS011;43309;44.418;26.122;2023-01-23T13:15:42;13.10;;;9.60;;
57463;SDS011;43309;44.418;26.122;2023-01-23T13:18:27;13.10;;;9.10;;
57463;SDS011;43309;44.418;26.122;2023-01-23T13:20:56;15.60;;;8.90;;
57463;SDS011;43309;44.418;26.122;2023-01-23T13:23:43;11.50;;;8.30;;
57463;SDS011;43309;44.418;26.122;2023-01-23T13:28:42;10.30;;;7.60;;
57463;SDS011;43309;44.418;26.122;2023-01-23T13:34:49;9.80;;;6.60;;
57463;SDS011;43309;44.418;26.122;2023-01-23T13:37:30;10.30;;;6.60;;
57463;SDS011;43309;44.418;26.122;2023-01-23T13:40:12;7.60;;;6.20;;
57463;SDS011;43309;44.418;26.122;2023-01-23T13:42:42;9.70;;;5.90;;
57463;SDS011;43309;44.418;26.122;2023-01-23T13:50:45;8.90;;;5.30;;
57463;SDS011;43309;44.418;26.122;2023-01-23T13:56:13;6.70;;;4.60;;
57463;SDS011;43309;44.418;26.122;2023-01-23T14:01:30;8.40;;;5.10;;
57463;SDS011;43309;44.418;26.122;2023-01-23T14:04:17;7.00;;;4.60;;
57463;SDS011;43309;44.418;26.122;2023-01-23T14:07:58;8.30;;;4.40;;
57463;SDS011;43309;44.418;26.122;2023-01-23T14:10:12;7.80;;;4.40;;
57463;SDS011;43309;44.418;26.122;2023-01-23T14:12:40;7.30;;;4.50;;
57463;SDS011;43309;44.418;26.122;2023-01-23T14:15:20;6.70;;;4.30;;
57463;SDS011;43309;44.418;26.122;2023-01-23T14:20:43;6.00;;;4.00;;
57463;SDS011;43309;44.418;26.122;2023-01-23T14:23:16;6.60;;;3.90;;
57463;SDS011;43309;44.418;26.122;2023-01-23T14:25:46;5.50;;;3.80;;
57463;SDS011;43309;44.418;26.122;2023-01-23T14:28:15;4.90;;;3.80;;
57463;SDS011;43309;44.418;26.122;2023-01-23T14:30:53;5.60;;;3.70;;
57463;SDS011;43309;44.418;26.122;2023-01-23T14:33:23;6.40;;;4.00;;
57463;SDS011;43309;44.418;26.122;2023-01-23T14:35:51;7.70;;;3.90;;
57463;SDS011;43309;44.418;26.122;2023-01-23T14:38:21;5.20;;;3.70;;
57463;SDS011;43309;44.418;26.122;2023-01-23T14:40:53;6.50;;;3.70;;
57463;SDS011;43309;44.418;26.122;2023-01-23T14:43:22;6.00;;;3.50;;
57463;SDS011;43309;44.418;26.122;2023-01-23T14:45:57;4.50;;;3.70;;
57463;SDS011;43309;44.418;26.122;2023-01-23T14:48:26;5.50;;;3.40;;
57463;SDS011;43309;44.418;26.122;2023-01-23T14:51:01;5.80;;;3.50;;
57463;SDS011;43309;44.418;26.122;2023-01-23T14:53:31;6.00;;;3.50;;
57463;SDS011;43309;44.418;26.122;2023-01-23T14:55:58;5.70;;;3.10;;
57463;SDS011;43309;44.418;26.122;2023-01-23T14:58:27;4.90;;;3.50;;
57463;SDS011;43309;44.418;26.122;2023-01-23T15:00:56;5.30;;;3.50;;
57463;SDS011;43309;44.418;26.122;2023-01-23T15:03:40;4.90;;;3.20;;
57463;SDS011;43309;44.418;26.122;2023-01-23T15:06:18;4.80;;;3.30;;
57463;SDS011;43309;44.418;26.122;2023-01-23T15:08:46;6.10;;;3.60;;
57463;SDS011;43309;44.418;26.122;2023-01-23T15:11:15;5.60;;;3.30;;
57463;SDS011;43309;44.418;26.122;2023-01-23T15:13:50;5.80;;;3.70;;
57463;SDS011;43309;44.418;26.122;2023-01-23T15:16:24;7.00;;;3.70;;
57463;SDS011;43309;44.418;26.122;2023-01-23T15:18:59;6.40;;;3.80;;
57463;SDS011;43309;44.418;26.122;2023-01-23T15:21:33;7.30;;;3.60;;
57463;SDS011;43309;44.418;26.122;2023-01-23T15:26:36;7.70;;;4.00;;
57463;SDS011;43309;44.418;26.122;2023-01-23T15:39:19;6.90;;;3.90;;
57463;SDS011;43309;44.418;26.122;2023-01-23T15:41:57;5.50;;;3.60;;
57463;SDS011;43309;44.418;26.122;2023-01-23T15:44:27;6.90;;;3.60;;
57463;SDS011;43309;44.418;26.122;2023-01-23T15:46:56;4.10;;;3.30;;
57463;SDS011;43309;44.418;26.122;2023-01-23T15:51:55;4.00;;;3.10;;
57463;SDS011;43309;44.418;26.122;2023-01-23T15:54:27;3.40;;;2.60;;
57463;SDS011;43309;44.418;26.122;2023-01-23T15:56:58;6.80;;;2.80;;
57463;SDS011;43309;44.418;26.122;2023-01-23T15:59:26;4.50;;;3.30;;
57463;SDS011;43309;44.418;26.122;2023-01-23T16:01:54;3.90;;;3.20;;
57463;SDS011;43309;44.418;26.122;2023-01-23T16:04:22;4.20;;;3.10;;
57463;SDS011;43309;44.418;26.122;2023-01-23T16:06:49;4.90;;;3.20;;
57463;SDS011;43309;44.418;26.122;2023-01-23T16:09:19;3.40;;;2.70;;
57463;SDS011;43309;44.418;26.122;2023-01-23T16:11:57;5.00;;;3.10;;
57463;SDS011;43309;44.418;26.122;2023-01-23T16:14:25;5.70;;;3.20;;
57463;SDS011;43309;44.418;26.122;2023-01-23T16:16:52;11.60;;;10.40;;
57463;SDS011;43309;44.418;26.122;2023-01-23T16:19:20;28.80;;;25.60;;
57463;SDS011;43309;44.418;26.122;2023-01-23T16:21:47;42.20;;;37.60;;
57463;SDS011;43309;44.418;26.122;2023-01-23T16:24:21;54.80;;;49.00;;
57463;SDS011;43309;44.418;26.122;2023-01-23T16:26:49;62.70;;;51.60;;
57463;SDS011;43309;44.418;26.122;2023-01-23T16:29:25;54.10;;;48.30;;
57463;SDS011;43309;44.418;26.122;2023-01-23T16:31:54;53.80;;;48.10;;
57463;SDS011;43309;44.418;26.122;2023-01-23T16:34:22;54.10;;;48.30;;
57463;SDS011;43309;44.418;26.122;2023-01-23T16:36:49;54.20;;;48.30;;
57463;SDS011;43309;44.418;26.122;2023-01-23T16:39:19;55.30;;;49.50;;
57463;SDS011;43309;44.418;26.122;2023-01-23T16:41:48;56.80;;;50.40;;
57463;SDS011;43309;44.418;26.122;2023-01-23T16:44:17;55.90;;;50.00;;
57463;SDS011;43309;44.418;26.122;2023-01-23T16:46:44;53.80;;;48.10;;
57463;SDS011;43309;44.418;26.122;2023-01-23T16:49:12;54.00;;;48.10;;
57463;SDS011;43309;44.418;26.122;2023-01-23T16:51:41;51.20;;;45.80;;
57463;SDS011;43309;44.418;26.122;2023-01-23T16:54:15;50.50;;;45.00;;
57463;SDS011;43309;44.418;26.122;2023-01-23T16:56:44;47.60;;;42.40;;
57463;SDS011;43309;44.418;26.122;2023-01-23T16:59:15;47.80;;;42.60;;
57463;SDS011;43309;44.418;26.122;2023-01-23T17:01:46;49.10;;;39.60;;
57463;SDS011;43309;44.418;26.122;2023-01-23T17:04:16;44.40;;;39.40;;